sensor_id;sensor_type;location;lat;lon;timestamp;P1;durP1;ratioP1;P2;durP2;ratioP2
54412;SDS011;41533;51.390;0.074;2023-02-28T00:00:51;0.77;;;0.50;;
54412;SDS011;41533;51.390;0.074;2023-02-28T00:03:18;1.33;;;0.88;;
54412;SDS011;41533;51.390;0.074;2023-02-28T00:05:45;0.40;;;0.40;;
54412;SDS011;41533;51.390;0.074;2023-02-28T00:08:13;1.02;;;0.70;;
54412;SDS011;41533;51.390;0.074;2023-02-28T00:10:40;3.28;;;0.98;;
54412;SDS011;41533;51.390;0.074;2023-02-28T00:13:08;2.63;;;0.85;;
54412;SDS011;41533;51.390;0.074;2023-02-28T00:15:35;1.23;;;0.70;;
54412;SDS011;41533;51.390;0.074;2023-02-28T00:18:02;3.20;;;1.02;;
54412;SDS011;41533;51.390;0.074;2023-02-28T00:20:31;1.08;;;0.70;;
54412;SDS011;41533;51.390;0.074;2023-02-28T00:22:58;2.20;;;0.75;;
54412;SDS011;41533;51.390;0.074;2023-02-28T00:25:26;1.38;;;0.88;;
54412;SDS011;41533;51.390;0.074;2023-02-28T00:27:53;4.82;;;0.88;;
54412;SDS011;41533;51.390;0.074;2023-02-28T00:30:21;4.53;;;1.10;;
54412;SDS011;41533;51.390;0.074;2023-02-28T00:32:49;2.40;;;0.75;;
54412;SDS011;41533;51.390;0.074;2023-02-28T00:35:17;1.48;;;1.02;;
54412;SDS011;41533;51.390;0.074;2023-02-28T00:37:45;0.77;;;0.50;;
54412;SDS011;41533;51.390;0.074;2023-02-28T00:40:12;1.00;;;0.77;;
54412;SDS011;41533;51.390;0.074;2023-02-28T00:42:39;1.73;;;0.85;;
54412;SDS011;41533;51.390;0.074;2023-02-28T00:45:07;2.30;;;0.90;;
54412;SDS011;41533;51.390;0.074;2023-02-28T00:47:37;2.67;;;1.10;;
54412;SDS011;41533;51.390;0.074;2023-02-28T00:50:07;3.55;;;0.80;;
54412;SDS011;41533;51.390;0.074;2023-02-28T00:52:36;1.27;;;0.93;;
54412;SDS011;41533;51.390;0.074;2023-02-28T00:55:03;1.98;;;0.80;;
54412;SDS011;41533;51.390;0.074;2023-02-28T00:57:32;1.85;;;0.70;;
54412;SDS011;41533;51.390;0.074;2023-02-28T00:59:59;3.25;;;0.77;;
54412;SDS011;41533;51.390;0.074;2023-02-28T01:02:27;1.58;;;0.63;;
54412;SDS011;41533;51.390;0.074;2023-02-28T01:04:54;1.75;;;0.77;;
54412;SDS011;41533;51.390;0.074;2023-02-28T01:07:21;2.22;;;0.70;;
54412;SDS011;41533;51.390;0.074;2023-02-28T01:09:48;3.83;;;0.93;;
54412;SDS011;41533;51.390;0.074;2023-02-28T01:12:16;2.25;;;0.90;;
54412;SDS011;41533;51.390;0.074;2023-02-28T01:14:46;1.10;;;0.80;;
54412;SDS011;41533;51.390;0.074;2023-02-28T01:17:14;1.27;;;0.88;;
54412;SDS011;41533;51.390;0.074;2023-02-28T01:19:42;1.95;;;0.88;;
54412;SDS011;41533;51.390;0.074;2023-02-28T01:22:09;1.63;;;0.55;;
54412;SDS011;41533;51.390;0.074;2023-02-28T01:24:37;2.38;;;0.70;;
54412;SDS011;41533;51.390;0.074;2023-02-28T01:27:04;1.77;;;0.80;;
54412;SDS011;41533;51.390;0.074;2023-02-28T01:29:31;2.40;;;0.95;;
54412;SDS011;41533;51.390;0.074;2023-02-28T01:31:58;2.67;;;0.90;;
54412;SDS011;41533;51.390;0.074;2023-02-28T01:34:26;2.85;;;0.80;;
54412;SDS011;41533;51.390;0.074;2023-02-28T01:36:53;3.25;;;0.70;;
54412;SDS011;41533;51.390;0.074;2023-02-28T01:39:21;3.08;;;1.23;;
54412;SDS011;41533;51.390;0.074;2023-02-28T01:41:49;2.30;;;0.75;;
54412;SDS011;41533;51.390;0.074;2023-02-28T01:47:03;1.75;;;1.00;;
54412;SDS011;41533;51.390;0.074;2023-02-28T01:49:30;2.97;;;0.65;;
54412;SDS011;41533;51.390;0.074;2023-02-28T01:51:58;1.83;;;1.02;;
54412;SDS011;41533;51.390;0.074;2023-02-28T01:54:26;2.58;;;1.10;;
54412;SDS011;41533;51.390;0.074;2023-02-28T01:56:55;1.80;;;1.10;;
54412;SDS011;41533;51.390;0.074;2023-02-28T01:59:45;3.97;;;1.27;;
54412;SDS011;41533;51.390;0.074;2023-02-28T02:02:13;1.92;;;1.02;;
54412;SDS011;41533;51.390;0.074;2023-02-28T02:04:42;1.60;;;0.90;;
54412;SDS011;41533;51.390;0.074;2023-02-28T02:07:13;4.20;;;1.00;;
54412;SDS011;41533;51.390;0.074;2023-02-28T02:09:44;1.42;;;0.80;;
54412;SDS011;41533;51.390;0.074;2023-02-28T02:12:55;2.75;;;1.20;;
54412;SDS011;41533;51.390;0.074;2023-02-28T02:17:37;4.18;;;1.02;;
54412;SDS011;41533;51.390;0.074;2023-02-28T02:25:32;1.58;;;1.05;;
54412;SDS011;41533;51.390;0.074;2023-02-28T02:30:37;2.80;;;1.00;;
54412;SDS011;41533;51.390;0.074;2023-02-28T02:33:18;2.33;;;1.08;;
54412;SDS011;41533;51.390;0.074;2023-02-28T02:44:15;2.45;;;1.05;;
54412;SDS011;41533;51.390;0.074;2023-02-28T02:46:45;3.15;;;1.42;;
54412;SDS011;41533;51.390;0.074;2023-02-28T02:49:21;4.65;;;1.38;;
54412;SDS011;41533;51.390;0.074;2023-02-28T02:51:50;2.28;;;1.30;;
54412;SDS011;41533;51.390;0.074;2023-02-28T02:54:28;3.83;;;1.70;;
54412;SDS011;41533;51.390;0.074;2023-02-28T02:56:59;4.25;;;1.30;;
54412;SDS011;41533;51.390;0.074;2023-02-28T02:59:28;1.45;;;1.00;;
54412;SDS011;41533;51.390;0.074;2023-02-28T03:01:59;3.92;;;1.23;;
54412;SDS011;41533;51.390;0.074;2023-02-28T03:04:27;1.42;;;1.02;;
54412;SDS011;41533;51.390;0.074;2023-02-28T03:06:58;2.60;;;1.10;;
54412;SDS011;41533;51.390;0.074;2023-02-28T03:09:25;2.25;;;0.98;;
54412;SDS011;41533;51.390;0.074;2023-02-28T03:11:54;3.72;;;1.38;;
54412;SDS011;41533;51.390;0.074;2023-02-28T03:14:35;3.38;;;1.20;;
54412;SDS011;41533;51.390;0.074;2023-02-28T03:27:23;2.92;;;1.23;;
54412;SDS011;41533;51.390;0.074;2023-02-28T03:29:54;1.88;;;1.15;;
54412;SDS011;41533;51.390;0.074;2023-02-28T03:32:35;2.55;;;1.40;;
54412;SDS011;41533;51.390;0.074;2023-02-28T03:37:34;0.95;;;0.65;;
54412;SDS011;41533;51.390;0.074;2023-02-28T03:40:17;4.40;;;1.40;;
54412;SDS011;41533;51.390;0.074;2023-02-28T03:42:47;2.63;;;1.02;;
54412;SDS011;41533;51.390;0.074;2023-02-28T03:45:16;4.93;;;1.00;;
54412;SDS011;41533;51.390;0.074;2023-02-28T03:47:47;2.95;;;1.15;;
54412;SDS011;41533;51.390;0.074;2023-02-28T03:50:24;6.43;;;1.27;;
54412;SDS011;41533;51.390;0.074;2023-02-28T03:55:28;2.75;;;1.00;;
54412;SDS011;41533;51.390;0.074;2023-02-28T03:57:59;3.38;;;1.50;;
54412;SDS011;41533;51.390;0.074;2023-02-28T04:00:32;4.55;;;1.30;;
54412;SDS011;41533;51.390;0.074;2023-02-28T04:03:01;2.97;;;1.08;;
54412;SDS011;41533;51.390;0.074;2023-02-28T04:05:28;4.07;;;0.88;;
54412;SDS011;41533;51.390;0.074;2023-02-28T04:08:07;2.13;;;1.10;;
54412;SDS011;41533;51.390;0.074;2023-02-28T04:10:34;4.53;;;1.17;;
54412;SDS011;41533;51.390;0.074;2023-02-28T04:13:01;1.27;;;1.08;;
54412;SDS011;41533;51.390;0.074;2023-02-28T04:15:29;4.07;;;1.35;;
54412;SDS011;41533;51.390;0.074;2023-02-28T04:17:56;1.52;;;0.95;;
54412;SDS011;41533;51.390;0.074;2023-02-28T04:20:23;2.72;;;0.80;;
54412;SDS011;41533;51.390;0.074;2023-02-28T04:22:50;3.85;;;1.02;;
54412;SDS011;41533;51.390;0.074;2023-02-28T04:25:18;4.68;;;1.17;;
54412;SDS011;41533;51.390;0.074;2023-02-28T04:27:45;3.65;;;1.13;;
54412;SDS011;41533;51.390;0.074;2023-02-28T04:30:12;4.35;;;1.98;;
54412;SDS011;41533;51.390;0.074;2023-02-28T04:32:39;3.80;;;1.35;;
54412;SDS011;41533;51.390;0.074;2023-02-28T04:35:07;1.08;;;0.93;;
54412;SDS011;41533;51.390;0.074;2023-02-28T04:37:36;1.15;;;1.05;;
54412;SDS011;41533;51.390;0.074;2023-02-28T04:40:03;7.00;;;1.38;;
54412;SDS011;41533;51.390;0.074;2023-02-28T04:42:31;2.40;;;1.02;;
54412;SDS011;41533;51.390;0.074;2023-02-28T04:45:02;3.03;;;1.02;;
54412;SDS011;41533;51.390;0.074;2023-02-28T04:47:30;6.20;;;1.05;;
54412;SDS011;41533;51.390;0.074;2023-02-28T04:49:57;2.85;;;1.20;;
54412;SDS011;41533;51.390;0.074;2023-02-28T04:52:24;4.95;;;1.05;;
54412;SDS011;41533;51.390;0.074;2023-02-28T04:54:51;4.65;;;1.23;;
54412;SDS011;41533;51.390;0.074;2023-02-28T04:57:19;2.50;;;0.90;;
54412;SDS011;41533;51.390;0.074;2023-02-28T04:59:46;3.83;;;1.23;;
54412;SDS011;41533;51.390;0.074;2023-02-28T05:02:13;1.20;;;0.80;;
54412;SDS011;41533;51.390;0.074;2023-02-28T05:04:40;2.58;;;1.10;;
54412;SDS011;41533;51.390;0.074;2023-02-28T05:07:07;2.53;;;1.00;;
54412;SDS011;41533;51.390;0.074;2023-02-28T05:09:35;3.75;;;0.82;;
54412;SDS011;41533;51.390;0.074;2023-02-28T05:12:02;2.60;;;1.63;;
54412;SDS011;41533;51.390;0.074;2023-02-28T05:14:30;3.78;;;1.30;;
54412;SDS011;41533;51.390;0.074;2023-02-28T05:16:57;2.45;;;1.33;;
54412;SDS011;41533;51.390;0.074;2023-02-28T05:19:24;9.35;;;1.83;;
54412;SDS011;41533;51.390;0.074;2023-02-28T05:21:52;3.72;;;1.58;;
54412;SDS011;41533;51.390;0.074;2023-02-28T05:24:20;2.00;;;1.10;;
54412;SDS011;41533;51.390;0.074;2023-02-28T05:26:50;3.78;;;1.60;;
54412;SDS011;41533;51.390;0.074;2023-02-28T05:29:18;2.88;;;1.50;;
54412;SDS011;41533;51.390;0.074;2023-02-28T05:31:46;3.22;;;1.05;;
54412;SDS011;41533;51.390;0.074;2023-02-28T05:34:14;1.60;;;1.00;;
54412;SDS011;41533;51.390;0.074;2023-02-28T05:36:43;7.78;;;2.00;;
54412;SDS011;41533;51.390;0.074;2023-02-28T05:39:10;2.85;;;1.20;;
54412;SDS011;41533;51.390;0.074;2023-02-28T05:41:40;2.75;;;1.23;;
54412;SDS011;41533;51.390;0.074;2023-02-28T05:44:07;5.07;;;1.25;;
54412;SDS011;41533;51.390;0.074;2023-02-28T05:46:34;1.77;;;1.30;;
54412;SDS011;41533;51.390;0.074;2023-02-28T05:49:02;2.08;;;1.00;;
54412;SDS011;41533;51.390;0.074;2023-02-28T05:51:29;4.03;;;1.23;;
54412;SDS011;41533;51.390;0.074;2023-02-28T05:54:00;1.77;;;1.23;;
54412;SDS011;41533;51.390;0.074;2023-02-28T05:56:28;2.47;;;0.98;;
54412;SDS011;41533;51.390;0.074;2023-02-28T05:58:55;3.40;;;1.15;;
54412;SDS011;41533;51.390;0.074;2023-02-28T06:01:36;2.55;;;0.90;;
54412;SDS011;41533;51.390;0.074;2023-02-28T06:04:04;5.32;;;1.73;;
54412;SDS011;41533;51.390;0.074;2023-02-28T06:06:32;1.48;;;0.88;;
54412;SDS011;41533;51.390;0.074;2023-02-28T06:09:03;1.65;;;0.63;;
54412;SDS011;41533;51.390;0.074;2023-02-28T06:11:31;2.05;;;1.20;;
54412;SDS011;41533;51.390;0.074;2023-02-28T06:14:03;1.77;;;1.33;;
54412;SDS011;41533;51.390;0.074;2023-02-28T06:16:31;2.92;;;1.00;;
54412;SDS011;41533;51.390;0.074;2023-02-28T06:18:59;1.70;;;0.90;;
54412;SDS011;41533;51.390;0.074;2023-02-28T06:21:27;1.70;;;0.70;;
54412;SDS011;41533;51.390;0.074;2023-02-28T06:23:55;3.30;;;1.08;;
54412;SDS011;41533;51.390;0.074;2023-02-28T06:26:23;2.28;;;0.88;;
54412;SDS011;41533;51.390;0.074;2023-02-28T06:28:50;2.13;;;1.23;;
54412;SDS011;41533;51.390;0.074;2023-02-28T06:31:17;1.95;;;1.20;;
54412;SDS011;41533;51.390;0.074;2023-02-28T06:33:45;2.47;;;1.20;;
54412;SDS011;41533;51.390;0.074;2023-02-28T06:36:13;3.63;;;1.15;;
54412;SDS011;41533;51.390;0.074;2023-02-28T06:38:40;1.38;;;0.75;;
54412;SDS011;41533;51.390;0.074;2023-02-28T06:41:08;1.02;;;0.90;;
54412;SDS011;41533;51.390;0.074;2023-02-28T06:43:38;1.35;;;0.90;;
54412;SDS011;41533;51.390;0.074;2023-02-28T06:46:07;3.88;;;1.05;;
54412;SDS011;41533;51.390;0.074;2023-02-28T06:48:35;2.90;;;1.23;;
54412;SDS011;41533;51.390;0.074;2023-02-28T06:51:06;2.95;;;1.05;;
54412;SDS011;41533;51.390;0.074;2023-02-28T06:53:34;2.58;;;1.40;;
54412;SDS011;41533;51.390;0.074;2023-02-28T06:56:10;2.42;;;0.93;;
54412;SDS011;41533;51.390;0.074;2023-02-28T06:58:37;1.70;;;1.20;;
54412;SDS011;41533;51.390;0.074;2023-02-28T07:01:06;1.63;;;1.05;;
54412;SDS011;41533;51.390;0.074;2023-02-28T07:03:35;2.47;;;1.42;;
54412;SDS011;41533;51.390;0.074;2023-02-28T07:06:02;3.63;;;1.00;;
54412;SDS011;41533;51.390;0.074;2023-02-28T07:08:31;3.28;;;1.20;;
54412;SDS011;41533;51.390;0.074;2023-02-28T07:10:58;3.60;;;0.93;;
54412;SDS011;41533;51.390;0.074;2023-02-28T07:13:25;1.77;;;1.00;;
54412;SDS011;41533;51.390;0.074;2023-02-28T07:15:54;2.92;;;1.25;;
54412;SDS011;41533;51.390;0.074;2023-02-28T07:18:21;2.75;;;1.38;;
54412;SDS011;41533;51.390;0.074;2023-02-28T07:20:48;1.67;;;1.05;;
54412;SDS011;41533;51.390;0.074;2023-02-28T07:23:16;1.80;;;1.40;;
54412;SDS011;41533;51.390;0.074;2023-02-28T07:25:43;2.05;;;1.30;;
54412;SDS011;41533;51.390;0.074;2023-02-28T07:28:11;2.85;;;1.10;;
54412;SDS011;41533;51.390;0.074;2023-02-28T07:30:38;1.50;;;0.88;;
54412;SDS011;41533;51.390;0.074;2023-02-28T07:33:08;5.20;;;1.00;;
54412;SDS011;41533;51.390;0.074;2023-02-28T07:35:35;3.17;;;1.10;;
54412;SDS011;41533;51.390;0.074;2023-02-28T07:38:03;1.42;;;1.33;;
54412;SDS011;41533;51.390;0.074;2023-02-28T07:40:30;1.58;;;0.95;;
54412;SDS011;41533;51.390;0.074;2023-02-28T07:42:58;1.02;;;0.93;;
54412;SDS011;41533;51.390;0.074;2023-02-28T07:45:27;1.17;;;0.93;;
54412;SDS011;41533;51.390;0.074;2023-02-28T07:48:01;1.67;;;0.80;;
54412;SDS011;41533;51.390;0.074;2023-02-28T07:50:28;0.80;;;0.80;;
54412;SDS011;41533;51.390;0.074;2023-02-28T07:52:58;1.15;;;1.05;;
54412;SDS011;41533;51.390;0.074;2023-02-28T07:55:26;2.08;;;1.00;;
54412;SDS011;41533;51.390;0.074;2023-02-28T07:57:54;2.53;;;0.95;;
54412;SDS011;41533;51.390;0.074;2023-02-28T08:00:21;1.15;;;1.05;;
54412;SDS011;41533;51.390;0.074;2023-02-28T08:02:49;1.48;;;0.82;;
54412;SDS011;41533;51.390;0.074;2023-02-28T08:05:16;2.00;;;0.93;;
54412;SDS011;41533;51.390;0.074;2023-02-28T08:07:49;2.75;;;1.20;;
54412;SDS011;41533;51.390;0.074;2023-02-28T08:10:16;1.33;;;0.95;;
54412;SDS011;41533;51.390;0.074;2023-02-28T08:12:43;1.63;;;0.98;;
54412;SDS011;41533;51.390;0.074;2023-02-28T08:15:10;1.60;;;0.95;;
54412;SDS011;41533;51.390;0.074;2023-02-28T08:17:38;2.13;;;0.90;;
54412;SDS011;41533;51.390;0.074;2023-02-28T08:20:06;0.70;;;0.70;;
54412;SDS011;41533;51.390;0.074;2023-02-28T08:22:34;1.38;;;0.70;;
54412;SDS011;41533;51.390;0.074;2023-02-28T08:25:01;1.35;;;0.90;;
54412;SDS011;41533;51.390;0.074;2023-02-28T08:27:28;1.75;;;0.95;;
54412;SDS011;41533;51.390;0.074;2023-02-28T08:29:56;1.10;;;0.70;;
54412;SDS011;41533;51.390;0.074;2023-02-28T08:32:24;1.30;;;0.93;;
54412;SDS011;41533;51.390;0.074;2023-02-28T08:34:56;1.10;;;0.60;;
54412;SDS011;41533;51.390;0.074;2023-02-28T08:37:24;1.67;;;0.93;;
54412;SDS011;41533;51.390;0.074;2023-02-28T08:39:51;0.68;;;0.52;;
54412;SDS011;41533;51.390;0.074;2023-02-28T08:42:22;3.72;;;1.05;;
54412;SDS011;41533;51.390;0.074;2023-02-28T08:44:49;1.05;;;0.63;;
54412;SDS011;41533;51.390;0.074;2023-02-28T08:47:19;2.15;;;0.73;;
54412;SDS011;41533;51.390;0.074;2023-02-28T08:49:47;1.20;;;0.90;;
54412;SDS011;41533;51.390;0.074;2023-02-28T08:52:23;1.35;;;0.90;;
54412;SDS011;41533;51.390;0.074;2023-02-28T08:54:51;1.58;;;1.13;;
54412;SDS011;41533;51.390;0.074;2023-02-28T08:57:18;1.48;;;0.70;;
54412;SDS011;41533;51.390;0.074;2023-02-28T08:59:46;2.22;;;0.95;;
54412;SDS011;41533;51.390;0.074;2023-02-28T09:02:13;1.60;;;0.70;;
54412;SDS011;41533;51.390;0.074;2023-02-28T09:04:41;0.60;;;0.60;;
54412;SDS011;41533;51.390;0.074;2023-02-28T09:07:09;1.05;;;0.80;;
54412;SDS011;41533;51.390;0.074;2023-02-28T09:09:38;1.67;;;1.25;;
54412;SDS011;41533;51.390;0.074;2023-02-28T09:12:22;2.20;;;1.27;;
54412;SDS011;41533;51.390;0.074;2023-02-28T09:14:50;2.22;;;0.88;;
54412;SDS011;41533;51.390;0.074;2023-02-28T09:17:19;0.80;;;0.80;;
54412;SDS011;41533;51.390;0.074;2023-02-28T09:19:50;0.85;;;0.60;;
54412;SDS011;41533;51.390;0.074;2023-02-28T09:22:17;1.02;;;0.70;;
54412;SDS011;41533;51.390;0.074;2023-02-28T09:24:45;0.82;;;0.80;;
54412;SDS011;41533;51.390;0.074;2023-02-28T09:27:12;1.15;;;1.00;;
54412;SDS011;41533;51.390;0.074;2023-02-28T09:29:39;0.75;;;0.75;;
54412;SDS011;41533;51.390;0.074;2023-02-28T09:32:07;1.85;;;0.90;;
54412;SDS011;41533;51.390;0.074;2023-02-28T09:34:34;3.33;;;1.00;;
54412;SDS011;41533;51.390;0.074;2023-02-28T09:37:04;0.93;;;0.70;;
54412;SDS011;41533;51.390;0.074;2023-02-28T09:39:32;0.77;;;0.73;;
54412;SDS011;41533;51.390;0.074;2023-02-28T09:41:59;1.00;;;0.90;;
54412;SDS011;41533;51.390;0.074;2023-02-28T09:44:34;2.05;;;0.68;;
54412;SDS011;41533;51.390;0.074;2023-02-28T09:49:42;3.08;;;0.55;;
54412;SDS011;41533;51.390;0.074;2023-02-28T09:52:12;1.65;;;0.88;;
54412;SDS011;41533;51.390;0.074;2023-02-28T09:54:41;0.98;;;0.57;;
54412;SDS011;41533;51.390;0.074;2023-02-28T09:57:13;1.17;;;0.75;;
54412;SDS011;41533;51.390;0.074;2023-02-28T10:02:46;1.65;;;0.65;;
54412;SDS011;41533;51.390;0.074;2023-02-28T10:05:17;0.60;;;0.60;;
54412;SDS011;41533;51.390;0.074;2023-02-28T10:10:29;1.08;;;0.68;;
54412;SDS011;41533;51.390;0.074;2023-02-28T10:15:41;0.98;;;0.80;;
54412;SDS011;41533;51.390;0.074;2023-02-28T10:18:11;0.52;;;0.50;;
54412;SDS011;41533;51.390;0.074;2023-02-28T10:20:40;4.55;;;0.73;;
54412;SDS011;41533;51.390;0.074;2023-02-28T10:26:01;0.60;;;0.55;;
54412;SDS011;41533;51.390;0.074;2023-02-28T10:28:33;1.58;;;0.73;;
54412;SDS011;41533;51.390;0.074;2023-02-28T10:31:01;2.10;;;0.50;;
54412;SDS011;41533;51.390;0.074;2023-02-28T10:33:33;1.90;;;0.70;;
54412;SDS011;41533;51.390;0.074;2023-02-28T10:36:04;0.55;;;0.52;;
54412;SDS011;41533;51.390;0.074;2023-02-28T10:38:35;1.65;;;1.08;;
54412;SDS011;41533;51.390;0.074;2023-02-28T10:41:13;0.63;;;0.50;;
54412;SDS011;41533;51.390;0.074;2023-02-28T10:43:43;0.50;;;0.50;;
54412;SDS011;41533;51.390;0.074;2023-02-28T10:46:16;1.00;;;0.90;;
54412;SDS011;41533;51.390;0.074;2023-02-28T10:49:05;1.50;;;0.50;;
54412;SDS011;41533;51.390;0.074;2023-02-28T10:51:34;0.55;;;0.55;;
54412;SDS011;41533;51.390;0.074;2023-02-28T10:54:02;0.60;;;0.60;;
54412;SDS011;41533;51.390;0.074;2023-02-28T10:56:30;2.95;;;0.70;;
54412;SDS011;41533;51.390;0.074;2023-02-28T11:01:43;1.52;;;0.60;;
54412;SDS011;41533;51.390;0.074;2023-02-28T11:07:03;0.57;;;0.57;;
54412;SDS011;41533;51.390;0.074;2023-02-28T11:09:38;1.17;;;0.70;;
54412;SDS011;41533;51.390;0.074;2023-02-28T11:12:32;0.65;;;0.40;;
54412;SDS011;41533;51.390;0.074;2023-02-28T11:15:02;0.70;;;0.60;;
54412;SDS011;41533;51.390;0.074;2023-02-28T11:17:30;1.13;;;0.70;;
54412;SDS011;41533;51.390;0.074;2023-02-28T11:19:59;0.75;;;0.52;;
54412;SDS011;41533;51.390;0.074;2023-02-28T11:22:31;1.45;;;0.70;;
54412;SDS011;41533;51.390;0.074;2023-02-28T11:25:01;0.55;;;0.52;;
54412;SDS011;41533;51.390;0.074;2023-02-28T11:29:56;0.75;;;0.70;;
54412;SDS011;41533;51.390;0.074;2023-02-28T11:32:25;4.35;;;0.43;;
54412;SDS011;41533;51.390;0.074;2023-02-28T11:37:38;0.40;;;0.40;;
54412;SDS011;41533;51.390;0.074;2023-02-28T11:40:13;0.50;;;0.50;;
54412;SDS011;41533;51.390;0.074;2023-02-28T11:46:05;0.93;;;0.70;;
54412;SDS011;41533;51.390;0.074;2023-02-28T11:50:49;1.10;;;0.47;;
54412;SDS011;41533;51.390;0.074;2023-02-28T11:55:46;1.65;;;0.60;;
54412;SDS011;41533;51.390;0.074;2023-02-28T12:03:17;4.15;;;0.55;;
54412;SDS011;41533;51.390;0.074;2023-02-28T12:05:46;0.70;;;0.50;;
54412;SDS011;41533;51.390;0.074;2023-02-28T12:08:54;1.23;;;0.50;;
54412;SDS011;41533;51.390;0.074;2023-02-28T12:16:15;0.77;;;0.50;;
54412;SDS011;41533;51.390;0.074;2023-02-28T12:21:20;1.08;;;0.88;;
54412;SDS011;41533;51.390;0.074;2023-02-28T12:26:50;0.43;;;0.35;;
54412;SDS011;41533;51.390;0.074;2023-02-28T12:29:19;0.60;;;0.50;;
54412;SDS011;41533;51.390;0.074;2023-02-28T12:31:52;0.73;;;0.50;;
54412;SDS011;41533;51.390;0.074;2023-02-28T12:34:38;0.85;;;0.45;;
54412;SDS011;41533;51.390;0.074;2023-02-28T12:37:17;0.50;;;0.50;;
54412;SDS011;41533;51.390;0.074;2023-02-28T12:39:48;1.35;;;0.80;;
54412;SDS011;41533;51.390;0.074;2023-02-28T12:42:19;0.47;;;0.40;;
54412;SDS011;41533;51.390;0.074;2023-02-28T12:44:49;1.10;;;0.65;;
54412;SDS011;41533;51.390;0.074;2023-02-28T12:47:18;0.98;;;0.70;;
54412;SDS011;41533;51.390;0.074;2023-02-28T12:49:46;1.35;;;0.70;;
54412;SDS011;41533;51.390;0.074;2023-02-28T12:52:18;1.65;;;0.60;;
54412;SDS011;41533;51.390;0.074;2023-02-28T12:54:56;1.67;;;0.82;;
54412;SDS011;41533;51.390;0.074;2023-02-28T12:59:59;1.05;;;0.70;;
54412;SDS011;41533;51.390;0.074;2023-02-28T13:10:38;1.33;;;0.52;;
54412;SDS011;41533;51.390;0.074;2023-02-28T13:13:06;0.55;;;0.55;;
54412;SDS011;41533;51.390;0.074;2023-02-28T13:15:33;0.57;;;0.57;;
54412;SDS011;41533;51.390;0.074;2023-02-28T13:18:19;0.63;;;0.52;;
54412;SDS011;41533;51.390;0.074;2023-02-28T13:20:51;0.63;;;0.50;;
54412;SDS011;41533;51.390;0.074;2023-02-28T13:26:05;0.32;;;0.30;;
54412;SDS011;41533;51.390;0.074;2023-02-28T13:31:17;0.57;;;0.57;;
54412;SDS011;41533;51.390;0.074;2023-02-28T13:38:54;2.25;;;0.60;;
54412;SDS011;41533;51.390;0.074;2023-02-28T13:51:52;0.50;;;0.50;;
54412;SDS011;41533;51.390;0.074;2023-02-28T14:00:07;0.63;;;0.60;;
54412;SDS011;41533;51.390;0.074;2023-02-28T14:05:13;1.58;;;0.60;;
54412;SDS011;41533;51.390;0.074;2023-02-28T14:07:46;0.50;;;0.50;;
54412;SDS011;41533;51.390;0.074;2023-02-28T14:15:26;0.50;;;0.50;;
54412;SDS011;41533;51.390;0.074;2023-02-28T14:17:57;0.55;;;0.52;;
54412;SDS011;41533;51.390;0.074;2023-02-28T14:20:27;0.87;;;0.57;;
54412;SDS011;41533;51.390;0.074;2023-02-28T14:23:06;1.13;;;0.63;;
54412;SDS011;41533;51.390;0.074;2023-02-28T14:25:43;0.55;;;0.55;;
54412;SDS011;41533;51.390;0.074;2023-02-28T14:28:19;0.55;;;0.45;;
54412;SDS011;41533;51.390;0.074;2023-02-28T14:30:55;0.63;;;0.60;;
54412;SDS011;41533;51.390;0.074;2023-02-28T14:36:07;0.45;;;0.45;;
54412;SDS011;41533;51.390;0.074;2023-02-28T14:38:41;0.43;;;0.43;;
54412;SDS011;41533;51.390;0.074;2023-02-28T14:41:53;0.40;;;0.40;;
54412;SDS011;41533;51.390;0.074;2023-02-28T14:44:20;0.60;;;0.50;;
54412;SDS011;41533;51.390;0.074;2023-02-28T14:46:48;1.65;;;0.47;;
54412;SDS011;41533;51.390;0.074;2023-02-28T14:49:18;4.32;;;0.63;;
54412;SDS011;41533;51.390;0.074;2023-02-28T14:51:45;0.38;;;0.38;;
54412;SDS011;41533;51.390;0.074;2023-02-28T14:54:15;0.32;;;0.32;;
54412;SDS011;41533;51.390;0.074;2023-02-28T14:56:42;2.50;;;0.50;;
54412;SDS011;41533;51.390;0.074;2023-02-28T15:02:24;1.95;;;0.77;;
54412;SDS011;41533;51.390;0.074;2023-02-28T15:04:56;1.60;;;0.75;;
54412;SDS011;41533;51.390;0.074;2023-02-28T15:07:25;0.55;;;0.50;;
54412;SDS011;41533;51.390;0.074;2023-02-28T15:10:06;0.60;;;0.40;;
54412;SDS011;41533;51.390;0.074;2023-02-28T15:12:37;1.45;;;0.47;;
54412;SDS011;41533;51.390;0.074;2023-02-28T15:15:06;0.80;;;0.80;;
54412;SDS011;41533;51.390;0.074;2023-02-28T15:17:34;0.60;;;0.60;;
54412;SDS011;41533;51.390;0.074;2023-02-28T15:20:02;0.85;;;0.50;;
54412;SDS011;41533;51.390;0.074;2023-02-28T15:22:31;1.30;;;0.52;;
54412;SDS011;41533;51.390;0.074;2023-02-28T15:25:02;0.70;;;0.60;;
54412;SDS011;41533;51.390;0.074;2023-02-28T15:27:35;0.60;;;0.60;;
54412;SDS011;41533;51.390;0.074;2023-02-28T15:30:06;0.55;;;0.55;;
54412;SDS011;41533;51.390;0.074;2023-02-28T15:32:38;0.40;;;0.40;;
54412;SDS011;41533;51.390;0.074;2023-02-28T15:35:37;1.38;;;0.70;;
54412;SDS011;41533;51.390;0.074;2023-02-28T15:38:25;0.95;;;0.25;;
54412;SDS011;41533;51.390;0.074;2023-02-28T15:40:57;0.68;;;0.65;;
54412;SDS011;41533;51.390;0.074;2023-02-28T15:46:03;0.40;;;0.40;;
54412;SDS011;41533;51.390;0.074;2023-02-28T15:48:53;0.50;;;0.40;;
54412;SDS011;41533;51.390;0.074;2023-02-28T15:51:19;0.68;;;0.50;;
54412;SDS011;41533;51.390;0.074;2023-02-28T15:53:48;0.88;;;0.60;;
54412;SDS011;41533;51.390;0.074;2023-02-28T15:56:22;0.52;;;0.40;;
54412;SDS011;41533;51.390;0.074;2023-02-28T15:58:52;1.45;;;0.50;;
54412;SDS011;41533;51.390;0.074;2023-02-28T16:01:28;1.85;;;0.60;;
54412;SDS011;41533;51.390;0.074;2023-02-28T16:03:59;0.70;;;0.50;;
54412;SDS011;41533;51.390;0.074;2023-02-28T16:06:44;0.60;;;0.60;;
54412;SDS011;41533;51.390;0.074;2023-02-28T16:09:15;0.95;;;0.47;;
54412;SDS011;41533;51.390;0.074;2023-02-28T16:11:45;1.10;;;0.50;;
54412;SDS011;41533;51.390;0.074;2023-02-28T16:14:18;0.40;;;0.30;;
54412;SDS011;41533;51.390;0.074;2023-02-28T16:16:48;0.60;;;0.43;;
54412;SDS011;41533;51.390;0.074;2023-02-28T16:19:17;0.52;;;0.40;;
54412;SDS011;41533;51.390;0.074;2023-02-28T16:21:44;0.57;;;0.57;;
54412;SDS011;41533;51.390;0.074;2023-02-28T16:24:12;1.33;;;0.40;;
54412;SDS011;41533;51.390;0.074;2023-02-28T16:26:40;0.65;;;0.40;;
54412;SDS011;41533;51.390;0.074;2023-02-28T16:29:12;0.60;;;0.60;;
54412;SDS011;41533;51.390;0.074;2023-02-28T16:31:40;0.70;;;0.70;;
54412;SDS011;41533;51.390;0.074;2023-02-28T16:34:07;0.85;;;0.40;;
54412;SDS011;41533;51.390;0.074;2023-02-28T16:36:35;0.43;;;0.38;;
54412;SDS011;41533;51.390;0.074;2023-02-28T16:39:02;0.95;;;0.47;;
54412;SDS011;41533;51.390;0.074;2023-02-28T16:41:30;0.57;;;0.40;;
54412;SDS011;41533;51.390;0.074;2023-02-28T16:43:58;0.95;;;0.60;;
54412;SDS011;41533;51.390;0.074;2023-02-28T16:46:27;0.70;;;0.70;;
54412;SDS011;41533;51.390;0.074;2023-02-28T16:48:57;1.35;;;0.60;;
54412;SDS011;41533;51.390;0.074;2023-02-28T16:51:24;1.65;;;0.55;;
54412;SDS011;41533;51.390;0.074;2023-02-28T16:53:51;0.55;;;0.55;;
54412;SDS011;41533;51.390;0.074;2023-02-28T16:56:19;0.52;;;0.52;;
54412;SDS011;41533;51.390;0.074;2023-02-28T16:58:47;0.63;;;0.63;;
54412;SDS011;41533;51.390;0.074;2023-02-28T17:01:15;1.15;;;0.52;;
54412;SDS011;41533;51.390;0.074;2023-02-28T17:03:43;0.95;;;0.45;;
54412;SDS011;41533;51.390;0.074;2023-02-28T17:06:21;0.50;;;0.50;;
54412;SDS011;41533;51.390;0.074;2023-02-28T17:08:49;1.15;;;0.68;;
54412;SDS011;41533;51.390;0.074;2023-02-28T17:11:17;1.17;;;0.52;;
54412;SDS011;41533;51.390;0.074;2023-02-28T17:13:44;1.17;;;0.77;;
54412;SDS011;41533;51.390;0.074;2023-02-28T17:16:15;1.48;;;0.82;;
54412;SDS011;41533;51.390;0.074;2023-02-28T17:18:44;0.93;;;0.68;;
54412;SDS011;41533;51.390;0.074;2023-02-28T17:21:13;1.27;;;0.73;;
54412;SDS011;41533;51.390;0.074;2023-02-28T17:23:41;1.52;;;0.68;;